Time;durP1;ratioP1;P1;durP2;ratioP2;P2;SDS_P1;SDS_P2;PMS_P1;PMS_P2;Temp;Humidity;BMP_temperature;BMP_pressure;BME280_temperature;BME280_humidity;BME280_pressure;Samples;Min_cycle;Max_cycle;Signal;HPM_P1;HPM_P2
2022/09/12 00:02:25;;;;;;;36.95;14.15;;;17.00;99.90;;;;;;5033833;28;20034;-62
2022/09/12 00:04:50;;;;;;;58.33;15.18;;;17.50;99.90;;;;;;5031180;28;20120;-62
2022/09/12 00:07:16;;;;;;;15.15;12.88;;;17.20;99.90;;;;;;5016442;28;20184;-62
2022/09/12 00:09:42;;;;;;;16.48;12.18;;;17.20;99.90;;;;;;5033217;28;20501;-61
2022/09/12 00:12:08;;;;;;;18.20;14.25;;;16.90;99.90;;;;;;5032706;28;20128;-62
2022/09/12 00:14:34;;;;;;;15.15;12.98;;;17.10;99.90;;;;;;5032281;28;20045;-62
2022/09/12 00:17:00;;;;;;;15.82;12.73;;;17.30;99.90;;;;;;5032529;28;20260;-62
2022/09/12 00:19:26;;;;;;;16.08;13.25;;;16.70;99.90;;;;;;5026960;28;20045;-62
2022/09/12 00:21:52;;;;;;;15.07;13.27;;;17.40;99.90;;;;;;5025288;28;20439;-62
2022/09/12 00:24:18;;;;;;;14.05;12.55;;;16.70;99.90;;;;;;5030846;28;20124;-62
2022/09/12 00:26:43;;;;;;;15.95;14.07;;;16.60;99.90;;;;;;5032718;28;20041;-62
2022/09/12 00:29:15;;;;;;;16.48;12.77;;;16.90;99.90;;;;;;5033959;28;20521;-62
2022/09/12 00:31:41;;;;;;;18.42;13.82;;;17.30;99.90;;;;;;5031685;28;20033;-62
2022/09/12 00:34:07;;;;;;;13.70;10.98;;;17.30;99.90;;;;;;5032070;28;20034;-62
2022/09/12 00:36:33;;;;;;;14.57;10.85;;;17.10;99.90;;;;;;5033612;28;20129;-62
2022/09/12 00:38:59;;;;;;;13.07;11.27;;;17.10;99.90;;;;;;5031890;28;20132;-62
2022/09/12 00:41:28;;;;;;;13.07;11.70;;;17.00;99.90;;;;;;5031746;28;20045;-62
2022/09/12 00:44:00;;;;;;;12.90;11.35;;;16.80;99.90;;;;;;5027458;28;20060;-61
2022/09/12 00:46:31;;;;;;;17.08;11.30;;;16.50;99.90;;;;;;5029411;28;20084;-62
2022/09/12 00:49:12;;;;;;;14.70;11.68;;;16.50;99.90;;;;;;5032213;28;20033;-62
2022/09/12 00:51:41;;;;;;;12.27;11.00;;;17.10;99.90;;;;;;5032970;28;20107;-63
2022/09/12 00:54:11;;;;;;;11.77;10.55;;;16.60;99.90;;;;;;5028147;28;20506;-62
2022/09/12 00:56:40;;;;;;;11.05;9.95;;;16.50;99.90;;;;;;5032410;28;20041;-62
2022/09/12 00:59:16;;;;;;;16.83;10.48;;;17.10;99.90;;;;;;5033099;28;20045;-62
2022/09/12 01:01:43;;;;;;;12.85;10.98;;;16.90;99.90;;;;;;5029427;28;20037;-61
2022/09/12 01:04:11;;;;;;;14.50;12.57;;;16.40;99.90;;;;;;5012642;28;20088;-62
2022/09/12 01:06:40;;;;;;;12.95;10.52;;;16.40;99.90;;;;;;5031856;28;20141;-62
2022/09/12 01:09:07;;;;;;;12.05;10.85;;;16.40;99.90;;;;;;5032767;28;20087;-61
2022/09/12 01:11:37;;;;;;;14.20;12.70;;;16.40;99.90;;;;;;5031681;28;20392;-62
2022/09/12 01:14:03;;;;;;;11.98;10.52;;;16.90;99.90;;;;;;5031334;28;20036;-62
2022/09/12 01:16:29;;;;;;;12.35;11.05;;;16.90;99.90;;;;;;5031891;28;20424;-61
2022/09/12 01:19:06;;;;;;;14.48;10.63;;;16.80;99.90;;;;;;5030331;28;20037;-62
2022/09/12 01:22:06;;;;;;;15.05;11.60;;;16.90;99.90;;;;;;5031826;28;20037;-62
2022/09/12 01:25:14;;;;;;;13.15;11.68;;;16.40;99.90;;;;;;5031292;28;20037;-62
2022/09/12 01:27:50;;;;;;;12.38;11.10;;;16.60;99.90;;;;;;5030550;28;20041;-62
2022/09/12 01:30:37;;;;;;;11.93;10.73;;;16.90;99.90;;;;;;5031346;28;20075;-62
2022/09/12 01:33:32;;;;;;;18.10;11.20;;;16.70;99.90;;;;;;5032353;28;20099;-62
2022/09/12 01:36:14;;;;;;;13.88;12.25;;;16.30;99.90;;;;;;5031298;28;20399;-62
2022/09/12 01:38:46;;;;;;;13.73;12.23;;;16.80;99.90;;;;;;5013403;28;20119;-61
2022/09/12 01:41:17;;;;;;;14.25;11.70;;;16.40;99.90;;;;;;5031109;28;20037;-62
2022/09/12 01:43:54;;;;;;;14.30;12.80;;;16.20;99.90;;;;;;5030793;28;20045;-62
2022/09/12 01:46:32;;;;;;;14.05;12.13;;;16.60;99.90;;;;;;5027700;28;20049;-62
2022/09/12 01:49:04;;;;;;;12.98;11.57;;;16.80;99.90;;;;;;5014125;28;20038;-62
2022/09/12 01:51:43;;;;;;;14.60;12.18;;;16.20;99.90;;;;;;5031615;28;20087;-62
2022/09/12 01:54:19;;;;;;;15.38;12.73;;;16.30;99.90;;;;;;5031419;28;20048;-61
2022/09/12 01:56:47;;;;;;;;;;;16.80;99.90;;;;;;5024228;28;20037;-62
2022/09/12 01:59:19;;;;;;;15.18;12.85;;;16.30;99.90;;;;;;5031450;28;19964;-63
2022/09/12 02:02:05;;;;;;;16.40;13.93;;;16.40;99.90;;;;;;5030717;28;20030;-62
2022/09/12 02:04:57;;;;;;;15.85;13.55;;;16.20;99.90;;;;;;5031257;28;20055;-61
2022/09/12 02:07:37;;;;;;;18.05;13.98;;;17.00;99.90;;;;;;5017431;28;20050;-62
2022/09/12 02:10:23;;;;;;;15.32;12.93;;;16.90;99.90;;;;;;5026964;28;20046;-62
2022/09/12 02:12:57;;;;;;;19.88;14.52;;;16.20;99.90;;;;;;5013742;28;20041;-61
2022/09/12 02:15:28;;;;;;;17.02;15.10;;;16.20;99.90;;;;;;5029201;28;20048;-62
2022/09/12 02:17:56;;;;;;;19.45;14.88;;;16.80;99.90;;;;;;5030291;28;20029;-63
2022/09/12 02:20:26;;;;;;;17.88;15.65;;;17.00;99.90;;;;;;5031833;28;20037;-62
2022/09/12 02:22:55;;;;;;;17.23;14.80;;;17.00;99.90;;;;;;5030515;28;20084;-62
2022/09/12 02:25:23;;;;;;;22.88;15.15;;;16.50;99.90;;;;;;5030993;28;20391;-62
2022/09/12 02:27:53;;;;;;;18.88;14.65;;;17.00;99.90;;;;;;5025802;28;20056;-62
2022/09/12 02:30:20;;;;;;;17.08;13.48;;;16.30;99.90;;;;;;5026133;28;20485;-62
2022/09/12 02:33:20;;;;;;;18.70;14.82;;;17.00;99.90;;;;;;5030435;28;20080;-62
2022/09/12 02:35:54;;;;;;;19.95;15.05;;;16.30;99.90;;;;;;5026244;28;20049;-62
2022/09/12 02:38:29;;;;;;;19.02;15.85;;;16.30;99.90;;;;;;5030243;28;20079;-62
2022/09/12 02:40:56;;;;;;;17.10;14.27;;;16.50;99.90;;;;;;5031371;28;20077;-62
2022/09/12 02:43:21;;;;;;;20.38;15.13;;;17.10;99.90;;;;;;5005394;28;20050;-62
2022/09/12 02:45:47;;;;;;;19.95;15.60;;;16.30;99.90;;;;;;5029026;28;20037;-61
2022/09/12 02:48:19;;;;;;;17.38;14.57;;;17.00;99.90;;;;;;5030846;28;20124;-62
2022/09/12 02:50:45;;;;;;;19.00;14.73;;;17.20;99.90;;;;;;5031311;28;20042;-62
2022/09/12 02:53:11;;;;;;;19.67;15.43;;;17.30;99.90;;;;;;5029871;28;20403;-62
2022/09/12 02:55:40;;;;;;;23.67;14.98;;;16.60;99.90;;;;;;5028844;28;20029;-62
2022/09/12 02:58:09;;;;;;;18.40;15.00;;;16.90;99.90;;;;;;5031110;28;20102;-62
2022/09/12 03:01:11;;;;;;;26.35;16.98;;;17.10;99.90;;;;;;5031221;28;20091;-62
2022/09/12 03:03:58;;;;;;;21.80;17.33;;;16.60;99.90;;;;;;4992974;28;20376;-62
2022/09/12 03:07:01;;;;;;;20.40;17.08;;;17.20;99.90;;;;;;5029481;28;20041;-62
2022/09/12 03:09:43;;;;;;;23.35;17.27;;;17.20;99.90;;;;;;5030535;28;20470;-62
2022/09/12 03:12:39;;;;;;;20.90;17.05;;;17.50;99.90;;;;;;5013285;28;20080;-62
2022/09/12 03:15:09;;;;;;;24.45;18.10;;;16.70;99.90;;;;;;5005590;28;20092;-62
2022/09/12 03:17:59;;;;;;;22.83;17.35;;;17.30;99.90;;;;;;5030457;28;20050;-62
2022/09/12 03:20:57;;;;;;;22.27;17.20;;;17.60;99.90;;;;;;5030138;28;20042;-62
2022/09/12 03:23:43;;;;;;;22.20;17.55;;;17.60;99.90;;;;;;5031807;28;20099;-61
2022/09/12 03:26:15;;;;;;;26.50;18.58;;;17.60;99.90;;;;;;5030111;28;20073;-62
2022/09/12 03:28:42;;;;;;;35.10;20.58;;;17.50;99.90;;;;;;5034096;28;20043;-62
2022/09/12 03:31:16;;;;;;;29.35;20.75;;;16.90;99.90;;;;;;5032914;28;20483;-62
2022/09/12 03:33:42;;;;;;;28.02;21.38;;;17.30;99.90;;;;;;5033995;28;20407;-61
2022/09/12 03:36:28;;;;;;;35.38;23.60;;;17.00;99.90;;;;;;5034470;28;20041;-62
2022/09/12 03:38:54;;;;;;;23.80;20.38;;;17.10;99.90;;;;;;5033787;28;20048;-62
2022/09/12 03:41:20;;;;;;;26.02;20.20;;;17.90;99.90;;;;;;5032900;28;20049;-62
2022/09/12 03:43:46;;;;;;;27.60;21.67;;;17.10;99.90;;;;;;5032370;28;20080;-62
2022/09/12 03:46:12;;;;;;;24.60;20.35;;;17.90;99.90;;;;;;5028661;28;20072;-62
2022/09/12 03:48:39;;;;;;;29.42;22.08;;;17.70;99.90;;;;;;5033804;28;20068;-63
2022/09/12 03:51:08;;;;;;;29.17;21.83;;;17.40;99.90;;;;;;5032925;28;20110;-62
2022/09/12 03:53:33;;;;;;;36.97;22.02;;;17.50;99.90;;;;;;5032184;28;20075;-62
2022/09/12 03:55:59;;;;;;;28.35;21.73;;;18.00;99.90;;;;;;5033213;28;20450;-62
2022/09/12 03:58:29;;;;;;;28.70;21.52;;;17.90;99.90;;;;;;5015081;28;20033;-63
2022/09/12 04:00:55;;;;;;;27.13;21.50;;;17.80;99.90;;;;;;5016179;28;20103;-62
2022/09/12 04:03:21;;;;;;;29.98;21.98;;;18.20;99.90;;;;;;5032955;28;20033;-62
2022/09/12 04:05:47;;;;;;;32.05;21.73;;;17.90;99.90;;;;;;5033105;28;20053;-62
2022/09/12 04:08:13;;;;;;;25.95;20.25;;;17.70;99.90;;;;;;5030370;28;20048;-62
2022/09/12 04:10:39;;;;;;;31.73;23.23;;;18.40;99.90;;;;;;5033319;28;20588;-62
2022/09/12 04:13:04;;;;;;;31.10;21.90;;;18.40;99.90;;;;;;5033478;28;20487;-62
2022/09/12 04:15:30;;;;;;;36.53;23.73;;;18.20;99.90;;;;;;5032906;28;20124;-62
2022/09/12 04:17:55;;;;;;;33.55;24.75;;;18.20;99.90;;;;;;5031136;28;20447;-62
2022/09/12 04:20:21;;;;;;;38.30;23.17;;;17.90;99.90;;;;;;5032485;28;20040;-62
2022/09/12 04:22:47;;;;;;;30.83;23.70;;;18.10;99.90;;;;;;5017749;28;20034;-62
2022/09/12 04:25:12;;;;;;;28.35;23.33;;;18.40;99.90;;;;;;5031633;28;20103;-62
2022/09/12 04:27:38;;;;;;;30.38;22.15;;;18.10;99.90;;;;;;5032456;28;20037;-62
2022/09/12 04:30:04;;;;;;;33.85;24.27;;;18.80;99.90;;;;;;5032952;28;20045;-62
2022/09/12 04:32:30;;;;;;;33.97;25.25;;;18.00;99.90;;;;;;5032882;28;20042;-62
2022/09/12 04:34:56;;;;;;;34.80;23.52;;;18.70;99.90;;;;;;5032169;28;20104;-64
2022/09/12 04:37:23;;;;;;;30.88;24.17;;;18.50;99.90;;;;;;5031570;28;20059;-62
2022/09/12 04:39:50;;;;;;;37.13;25.20;;;18.60;99.90;;;;;;5011922;28;20048;-62
2022/09/12 04:42:16;;;;;;;31.83;24.98;;;18.70;99.90;;;;;;5031000;28;20552;-63
2022/09/12 04:44:41;;;;;;;35.15;25.67;;;18.50;99.90;;;;;;5032866;28;20037;-62
2022/09/12 04:47:07;;;;;;;32.70;25.20;;;18.20;99.90;;;;;;5031408;28;20132;-62
2022/09/12 04:49:33;;;;;;;33.55;24.90;;;19.00;99.90;;;;;;5030267;28;20049;-64
2022/09/12 04:51:58;;;;;;;43.50;26.42;;;18.30;99.90;;;;;;5032496;28;20041;-62
2022/09/12 04:54:24;;;;;;;35.72;25.50;;;19.00;99.90;;;;;;5032153;28;20087;-62
2022/09/12 04:56:50;;;;;;;38.65;25.88;;;18.60;99.90;;;;;;5032820;28;20087;-62
2022/09/12 04:59:17;;;;;;;40.63;26.35;;;18.20;99.90;;;;;;5030318;28;20049;-62
2022/09/12 05:01:43;;;;;;;40.78;26.77;;;19.00;99.90;;;;;;5032124;28;20044;-63
2022/09/12 05:04:09;;;;;;;36.45;26.08;;;18.50;99.90;;;;;;5031013;28;20045;-63
2022/09/12 05:06:37;;;;;;;32.10;24.00;;;18.20;99.90;;;;;;5031909;28;20103;-62
2022/09/12 05:09:04;;;;;;;33.47;24.65;;;18.30;99.90;;;;;;5031585;28;20029;-62
2022/09/12 05:11:32;;;;;;;35.03;27.65;;;19.20;99.90;;;;;;5031578;28;20134;-62
2022/09/12 05:13:58;;;;;;;38.25;27.33;;;19.10;99.90;;;;;;5029982;28;20033;-62
2022/09/12 05:16:25;;;;;;;32.70;24.75;;;19.30;99.90;;;;;;5030366;28;20108;-63
2022/09/12 05:18:51;;;;;;;38.03;27.08;;;19.40;99.90;;;;;;5031676;28;20037;-62
2022/09/12 05:21:19;;;;;;;37.00;27.23;;;18.70;99.90;;;;;;5032529;28;20095;-63
2022/09/12 05:23:46;;;;;;;36.90;25.95;;;19.20;99.90;;;;;;5027344;28;20487;-63
2022/09/12 05:26:16;;;;;;;37.83;24.88;;;18.70;99.90;;;;;;5026868;28;20434;-62
2022/09/12 05:28:41;;;;;;;34.28;25.17;;;18.50;99.90;;;;;;5008512;28;20034;-62
2022/09/12 05:31:16;;;;;;;33.30;24.95;;;19.30;99.90;;;;;;5014756;28;20076;-63
2022/09/12 05:33:43;;;;;;;34.47;23.95;;;18.60;99.90;;;;;;5029760;28;20501;-63
2022/09/12 05:36:12;;;;;;;28.50;23.05;;;18.60;99.90;;;;;;5007646;28;20384;-62
2022/09/12 05:38:38;;;;;;;29.38;22.73;;;19.00;99.90;;;;;;5030245;28;20495;-62
2022/09/12 05:41:06;;;;;;;28.98;22.55;;;19.10;99.90;;;;;;5025942;28;20399;-62
2022/09/12 05:43:33;;;;;;;33.95;24.10;;;18.40;99.90;;;;;;5028644;28;20038;-62
2022/09/12 05:46:13;;;;;;;33.95;22.98;;;18.40;99.90;;;;;;5024037;28;20371;-62
2022/09/12 05:48:41;;;;;;;30.33;24.30;;;18.40;99.90;;;;;;5028433;28;20037;-63
2022/09/12 05:51:12;;;;;;;27.25;21.77;;;19.40;99.90;;;;;;5030131;28;20037;-62
2022/09/12 05:53:39;;;;;;;32.05;25.17;;;18.80;99.90;;;;;;5032264;28;20110;-62
2022/09/12 05:56:10;;;;;;;35.90;26.00;;;19.10;99.90;;;;;;5029424;28;20041;-63
2022/09/12 05:58:40;;;;;;;32.63;24.80;;;18.60;99.90;;;;;;5028175;28;20611;-63
2022/09/12 06:01:12;;;;;;;36.13;25.67;;;19.40;99.90;;;;;;5010460;28;20041;-64
2022/09/12 06:03:48;;;;;;;31.30;25.70;;;18.70;99.90;;;;;;5028743;28;20045;-63
2022/09/12 06:06:16;;;;;;;42.88;24.38;;;18.60;99.90;;;;;;5028277;28;20048;-63
2022/09/12 06:08:43;;;;;;;32.83;24.25;;;19.30;99.90;;;;;;5026342;28;20038;-63
2022/09/12 06:11:15;;;;;;;28.10;22.40;;;19.40;99.90;;;;;;5027697;28;20713;-64
2022/09/12 06:13:41;;;;;;;31.20;23.27;;;19.40;99.90;;;;;;5012329;28;20052;-64
2022/09/12 06:16:24;;;;;;;29.42;22.83;;;19.40;99.90;;;;;;5010257;28;20124;-64
2022/09/12 06:18:55;;;;;;;31.35;24.15;;;19.50;99.90;;;;;;5027276;28;20116;-64
2022/09/12 06:21:22;;;;;;;31.60;23.95;;;19.20;99.90;;;;;;5029224;28;20033;-64
2022/09/12 06:23:48;;;;;;;33.22;24.17;;;19.60;99.90;;;;;;5025384;28;20037;-64
2022/09/12 06:26:16;;;;;;;36.90;26.23;;;19.50;99.90;;;;;;5029312;28;20041;-64
2022/09/12 06:28:46;;;;;;;31.85;24.25;;;19.60;99.90;;;;;;5026554;28;20034;-64
2022/09/12 06:31:26;;;;;;;27.15;22.98;;;18.80;99.90;;;;;;5027363;28;20049;-64
2022/09/12 06:33:53;;;;;;;30.63;23.50;;;19.00;99.90;;;;;;5026329;28;20049;-64
2022/09/12 06:36:27;;;;;;;32.38;23.83;;;19.20;99.90;;;;;;5027613;28;20454;-64
2022/09/12 06:38:56;;;;;;;33.53;24.15;;;19.60;99.90;;;;;;5005615;28;20041;-65
2022/09/12 06:41:23;;;;;;;37.10;24.30;;;18.90;99.90;;;;;;5027361;28;20037;-64
2022/09/12 06:43:48;;;;;;;31.30;22.20;;;19.20;99.90;;;;;;5030595;28;20503;-63
2022/09/12 06:46:14;;;;;;;30.52;21.98;;;19.70;99.90;;;;;;5030198;28;20038;-64
2022/09/12 06:48:40;;;;;;;34.80;24.77;;;19.00;99.90;;;;;;5030365;28;20045;-64
2022/09/12 06:51:09;;;;;;;31.35;23.77;;;19.00;99.90;;;;;;5029844;28;20068;-64
2022/09/12 06:53:35;;;;;;;29.65;21.58;;;19.10;99.90;;;;;;5030908;28;20403;-63
2022/09/12 06:56:08;;;;;;;30.25;23.45;;;19.80;99.90;;;;;;5031132;28;20041;-64
2022/09/12 06:58:34;;;;;;;33.08;24.27;;;20.00;99.90;;;;;;5033731;28;20037;-63
2022/09/12 07:01:21;;;;;;;31.20;24.55;;;19.60;99.90;;;;;;5034789;28;20106;-64
2022/09/12 07:03:50;;;;;;;32.03;22.52;;;19.30;99.90;;;;;;5034854;28;20052;-64
2022/09/12 07:06:17;;;;;;;30.50;22.83;;;20.30;99.90;;;;;;5031711;28;20037;-64
2022/09/12 07:08:43;;;;;;;27.80;22.27;;;19.90;99.90;;;;;;5016802;28;20565;-64
2022/09/12 07:11:20;;;;;;;29.48;22.35;;;20.30;99.90;;;;;;5032805;28;20136;-64
2022/09/12 07:13:52;;;;;;;29.33;21.20;;;19.90;99.90;;;;;;5034142;28;20033;-64
2022/09/12 07:16:18;;;;;;;29.02;21.33;;;19.80;99.90;;;;;;5021757;28;20041;-64
2022/09/12 07:18:48;;;;;;;25.55;20.85;;;19.80;99.90;;;;;;5013549;28;20125;-64
2022/09/12 07:21:14;;;;;;;23.90;20.15;;;20.00;99.90;;;;;;5028944;28;20025;-64
2022/09/12 07:23:40;;;;;;;26.98;19.55;;;20.10;99.90;;;;;;5027587;28;20091;-64
2022/09/12 07:26:09;;;;;;;31.52;21.27;;;20.10;99.90;;;;;;5030161;28;20045;-64
2022/09/12 07:28:35;;;;;;;23.67;20.65;;;20.80;99.90;;;;;;5024194;28;20080;-64
2022/09/12 07:31:11;;;;;;;29.75;20.70;;;20.90;99.90;;;;;;5027542;28;20428;-64
2022/09/12 07:33:38;;;;;;;31.40;21.13;;;20.60;99.90;;;;;;5031026;28;20474;-64
2022/09/12 07:36:11;;;;;;;28.95;20.88;;;21.00;99.90;;;;;;5030635;28;20410;-64
2022/09/12 07:38:37;;;;;;;23.35;18.75;;;20.80;99.90;;;;;;5029424;28;20437;-64
2022/09/12 07:41:30;;;;;;;27.20;21.15;;;20.60;99.90;;;;;;5030399;28;20457;-64
2022/09/12 07:43:58;;;;;;;24.63;19.23;;;21.30;99.90;;;;;;5029524;28;20041;-64
2022/09/12 07:46:25;;;;;;;27.48;21.35;;;21.40;99.90;;;;;;5028502;28;20037;-64
2022/09/12 07:48:56;;;;;;;26.23;20.67;;;21.20;99.90;;;;;;5030576;28;20061;-64
2022/09/12 07:51:24;;;;;;;29.88;21.38;;;21.00;99.90;;;;;;5028386;28;20041;-65
2022/09/12 07:53:50;;;;;;;29.63;22.95;;;21.60;99.90;;;;;;5030490;28;20111;-64
2022/09/12 07:56:17;;;;;;;31.55;21.77;;;21.30;99.90;;;;;;5029553;28;20068;-64
2022/09/12 07:58:43;;;;;;;25.63;20.30;;;21.10;99.90;;;;;;5031317;28;20059;-64
2022/09/12 08:01:13;;;;;;;29.52;20.17;;;21.70;99.90;;;;;;5032532;28;20037;-65
2022/09/12 08:03:41;;;;;;;26.50;18.77;;;21.50;99.90;;;;;;5032697;28;20063;-64
2022/09/12 08:06:13;;;;;;;27.23;20.08;;;21.60;99.90;;;;;;5030209;28;20686;-64
2022/09/12 08:08:39;;;;;;;25.13;19.45;;;21.50;99.90;;;;;;5029390;28;20042;-64
2022/09/12 08:11:07;;;;;;;30.33;21.20;;;21.50;99.90;;;;;;5008288;28;20054;-64
2022/09/12 08:13:35;;;;;;;28.75;21.60;;;21.40;99.90;;;;;;5012758;28;20038;-65
2022/09/12 08:16:06;;;;;;;30.35;22.35;;;21.70;99.90;;;;;;5013141;28;20478;-64
2022/09/12 08:18:35;;;;;;;27.83;20.50;;;21.70;99.90;;;;;;5010748;28;20046;-65
2022/09/12 08:21:04;;;;;;;27.75;20.10;;;21.90;99.90;;;;;;5012889;28;20454;-65
2022/09/12 08:23:30;;;;;;;29.25;20.23;;;21.80;99.90;;;;;;5007308;28;20104;-65
2022/09/12 08:26:00;;;;;;;27.83;20.95;;;22.00;99.90;;;;;;5011320;28;20067;-65
2022/09/12 08:28:26;;;;;;;24.67;18.50;;;21.80;99.90;;;;;;5006689;28;20038;-65
2022/09/12 08:31:03;;;;;;;26.75;20.65;;;22.20;99.90;;;;;;5027298;28;20038;-65
2022/09/12 08:33:32;;;;;;;29.17;21.45;;;22.00;99.90;;;;;;5002805;28;20119;-65
2022/09/12 08:36:05;;;;;;;25.27;19.35;;;22.00;99.90;;;;;;5006727;28;20044;-65
2022/09/12 08:38:31;;;;;;;29.60;21.95;;;22.20;99.90;;;;;;5007507;28;20049;-65
2022/09/12 08:41:01;;;;;;;30.30;21.77;;;22.20;99.90;;;;;;5012978;28;20120;-65
2022/09/12 08:43:38;;;;;;;27.48;20.92;;;22.20;99.90;;;;;;5012502;28;20041;-65
2022/09/12 08:46:12;;;;;;;29.92;23.00;;;22.30;99.90;;;;;;5013023;28;20046;-65
2022/09/12 08:48:39;;;;;;;29.20;21.73;;;22.80;99.90;;;;;;5004375;28;20034;-65
2022/09/12 08:51:11;;;;;;;25.17;18.55;;;23.00;99.90;;;;;;5008383;28;20492;-65
2022/09/12 08:53:37;;;;;;;25.70;19.48;;;23.20;99.90;;;;;;5012551;28;20049;-64
2022/09/12 08:56:05;;;;;;;26.45;20.08;;;23.10;99.90;;;;;;5011851;28;20116;-65
2022/09/12 08:58:38;;;;;;;25.85;18.88;;;23.40;99.90;;;;;;5009715;28;20050;-65
2022/09/12 09:01:18;;;;;;;25.83;19.67;;;23.80;99.90;;;;;;5025101;28;20046;-65
2022/09/12 09:04:03;;;;;;;26.10;18.58;;;23.80;99.90;;;;;;5010079;28;20034;-65
2022/09/12 09:06:52;;;;;;;23.35;17.77;;;23.90;99.90;;;;;;5008882;28;20049;-66
2022/09/12 09:09:36;;;;;;;23.40;16.60;;;23.90;99.90;;;;;;5006302;28;20042;-65
2022/09/12 09:12:15;;;;;;;26.70;17.80;;;24.30;99.90;;;;;;5030037;28;20052;-66
2022/09/12 09:15:22;;;;;;;27.77;16.27;;;24.40;99.90;;;;;;5030269;28;20029;-66
2022/09/12 09:17:57;;;;;;;19.20;13.00;;;24.50;99.90;;;;;;5023121;28;20045;-66
2022/09/12 09:20:47;;;;;;;22.10;13.35;;;24.60;99.90;;;;;;5030033;28;20128;-66
2022/09/12 09:23:27;;;;;;;23.52;15.85;;;24.80;99.90;;;;;;5019828;28;20042;-66
2022/09/12 09:25:58;;;;;;;22.23;15.18;;;25.10;99.90;;;;;;5028641;28;20044;-66
2022/09/12 09:28:42;;;;;;;20.42;14.50;;;25.40;99.90;;;;;;5013271;28;20041;-66
2022/09/12 09:31:14;;;;;;;17.25;14.27;;;25.40;99.90;;;;;;5027629;28;20037;-66
2022/09/12 09:33:40;;;;;;;18.10;12.63;;;25.30;99.90;;;;;;5029051;28;20041;-66
2022/09/12 09:36:46;;;;;;;19.20;13.68;;;25.00;99.90;;;;;;5028962;28;20041;-65
2022/09/12 09:39:31;;;;;;;17.70;12.17;;;25.00;99.90;;;;;;5026643;28;20037;-66
2022/09/12 09:42:27;;;;;;;19.25;13.32;;;25.30;99.90;;;;;;5029821;28;20064;-66
2022/09/12 09:44:57;;;;;;;20.92;13.70;;;25.50;99.90;;;;;;5035041;28;20049;-66
2022/09/12 09:47:23;;;;;;;18.25;12.13;;;25.80;99.90;;;;;;5013021;28;20037;-66
2022/09/12 09:49:48;;;;;;;19.10;12.82;;;26.00;99.90;;;;;;5005678;28;20793;-66
2022/09/12 09:52:18;;;;;;;17.05;12.40;;;26.10;99.90;;;;;;5032285;28;20095;-66
2022/09/12 09:54:52;;;;;;;19.92;12.98;;;26.20;99.90;;;;;;5029913;28;20052;-65
2022/09/12 09:57:39;;;;;;;19.80;13.27;;;26.00;99.90;;;;;;5028496;28;20116;-66
2022/09/12 10:00:37;;;;;;;22.73;13.02;;;26.00;99.90;;;;;;5031098;28;20055;-64
2022/09/12 10:03:39;;;;;;;17.70;12.05;;;26.20;99.90;;;;;;4977729;28;20081;-64
2022/09/12 10:06:29;;;;;;;13.85;9.20;;;26.30;99.90;;;;;;5010860;28;20053;-63
2022/09/12 10:09:13;;;;;;;12.40;8.30;;;26.40;99.90;;;;;;5007337;28;20029;-63
2022/09/12 10:11:39;;;;;;;12.00;8.38;;;26.50;99.90;;;;;;5026104;28;20061;-64
2022/09/12 10:14:28;;;;;;;13.38;9.20;;;26.50;54.70;;;;;;5029735;28;20045;-64
2022/09/12 10:16:53;;;;;;;15.70;7.97;;;26.60;98.40;;;;;;5011149;28;20053;-64
2022/09/12 10:19:32;;;;;;;12.23;8.80;;;26.70;99.90;;;;;;5029317;28;20175;-64
2022/09/12 10:21:59;;;;;;;15.45;9.45;;;26.60;1.00;;;;;;5022879;28;20057;-63
2022/09/12 10:24:42;;;;;;;15.98;11.05;;;26.70;18.40;;;;;;5026215;28;20040;-64
2022/09/12 10:27:10;;;;;;;13.55;10.48;;;26.90;99.90;;;;;;5029450;28;20042;-63
2022/09/12 10:29:53;;;;;;;11.65;8.70;;;26.90;1.00;;;;;;5027692;28;20064;-63
2022/09/12 10:32:35;;;;;;;16.40;9.98;;;27.10;99.90;;;;;;5012319;28;20491;-64
2022/09/12 10:35:14;;;;;;;10.88;7.75;;;27.10;1.00;;;;;;5034696;28;20676;-63
2022/09/12 10:37:49;;;;;;;15.00;8.10;;;27.10;99.90;;;;;;5031075;28;20056;-63
2022/09/12 10:40:24;;;;;;;11.85;7.68;;;27.10;15.80;;;;;;5032463;28;20124;-63
2022/09/12 10:42:55;;;;;;;14.52;8.55;;;27.10;1.00;;;;;;5028116;28;20041;-63
2022/09/12 10:45:34;;;;;;;23.60;7.63;;;27.00;99.90;;;;;;5034874;28;20041;-64
2022/09/12 10:48:03;;;;;;;6.68;5.25;;;27.00;99.90;;;;;;5033680;28;20045;-63
2022/09/12 10:50:40;;;;;;;9.30;6.40;;;26.70;95.50;;;;;;5032942;28;20033;-63
2022/09/12 10:53:21;;;;;;;13.05;7.45;;;26.30;89.90;;;;;;5016949;28;20080;-64
2022/09/12 10:56:02;;;;;;;15.30;9.32;;;26.20;99.90;;;;;;5034151;28;20112;-63
2022/09/12 10:58:55;;;;;;;15.88;8.90;;;26.50;99.90;;;;;;5035330;28;20499;-63
2022/09/12 11:01:43;;;;;;;11.43;8.45;;;26.60;99.90;;;;;;5030779;28;20102;-63
2022/09/12 11:04:22;;;;;;;14.65;9.73;;;26.30;99.90;;;;;;5033609;28;20037;-63
2022/09/12 11:07:19;;;;;;;13.30;9.60;;;26.00;99.90;;;;;;5019013;28;20049;-63
2022/09/12 11:10:23;;;;;;;13.57;9.15;;;25.70;99.90;;;;;;5030978;28;20044;-64
2022/09/12 11:13:12;;;;;;;17.95;11.52;;;25.40;99.90;;;;;;5037348;28;20495;-63
2022/09/12 11:16:17;;;;;;;16.48;11.48;;;25.30;1.00;;;;;;5023332;28;20084;-63
2022/09/12 11:19:20;;;;;;;17.73;12.00;;;25.30;93.00;;;;;;5014335;28;20522;-63
2022/09/12 11:22:11;;;;;;;14.13;10.20;;;25.30;99.90;;;;;;5037308;28;20056;-63
2022/09/12 11:25:14;;;;;;;23.15;12.50;;;25.20;99.90;;;;;;5036118;28;20041;-63
2022/09/12 11:28:05;;;;;;;18.08;11.85;;;25.20;99.90;;;;;;5033296;28;20141;-64
2022/09/12 11:30:51;;;;;;;17.98;13.10;;;25.10;99.90;;;;;;5022127;28;20068;-64
2022/09/12 11:33:37;;;;;;;17.67;11.02;;;25.20;1.00;;;;;;5030019;28;20049;-64
2022/09/12 11:36:06;;;;;;;17.17;12.60;;;25.30;1.00;;;;;;5030613;28;20518;-64
2022/09/12 11:38:55;;;;;;;17.95;12.05;;;25.10;1.00;;;;;;5032756;28;20493;-64
2022/09/12 11:41:25;;;;;;;16.60;12.48;;;25.10;99.90;;;;;;5026373;28;20098;-64
2022/09/12 11:44:10;;;;;;;17.92;12.77;;;25.10;99.90;;;;;;5025970;28;20095;-64
2022/09/12 11:46:38;;;;;;;19.73;14.07;;;25.00;99.90;;;;;;5030272;28;20087;-64
2022/09/12 11:49:13;;;;;;;15.27;12.82;;;25.00;99.90;;;;;;5012088;28;20117;-64
2022/09/12 11:51:45;;;;;;;19.90;13.55;;;25.10;99.90;;;;;;5031282;28;20103;-64
2022/09/12 11:54:13;;;;;;;21.02;11.60;;;25.40;99.90;;;;;;5032284;28;20046;-64
2022/09/12 11:56:44;;;;;;;18.40;14.20;;;25.60;99.90;;;;;;5016990;28;20060;-64
2022/09/12 11:59:31;;;;;;;24.00;14.77;;;25.60;99.90;;;;;;5017597;28;20053;-64
2022/09/12 12:01:58;;;;;;;20.38;12.63;;;25.70;99.90;;;;;;5031493;28;20037;-64
2022/09/12 12:04:41;;;;;;;16.13;12.40;;;25.70;45.10;;;;;;5011171;28;20072;-64
2022/09/12 12:07:09;;;;;;;18.83;13.75;;;25.80;99.90;;;;;;5028462;28;20073;-64
2022/09/12 12:09:49;;;;;;;21.48;14.57;;;25.90;1.00;;;;;;5032681;28;20474;-64
2022/09/12 12:12:21;;;;;;;19.45;14.88;;;26.00;99.90;;;;;;5033740;28;20049;-64
2022/09/12 12:14:49;;;;;;;19.80;14.90;;;26.00;1.00;;;;;;5031085;28;20475;-64
2022/09/12 12:17:18;;;;;;;27.50;12.52;;;26.10;15.40;;;;;;5030287;28;20116;-64
2022/09/12 12:19:46;;;;;;;15.65;11.68;;;26.10;99.50;;;;;;5031116;28;20065;-64
2022/09/12 12:22:22;;;;;;;18.38;12.65;;;26.00;1.00;;;;;;5031126;28;22268;-64
2022/09/12 12:25:06;;;;;;;18.73;13.93;;;25.80;99.90;;;;;;5029457;28;20060;-64
2022/09/12 12:27:52;;;;;;;18.75;13.65;;;25.60;99.90;;;;;;5020106;28;20124;-64
2022/09/12 12:30:29;;;;;;;17.73;13.15;;;25.70;1.00;;;;;;5029597;28;20038;-64
2022/09/12 12:32:59;;;;;;;17.65;12.30;;;25.70;99.90;;;;;;5030065;28;20513;-64
2022/09/12 12:35:45;;;;;;;17.95;12.63;;;25.60;99.90;;;;;;5027843;28;20030;-64
2022/09/12 12:38:32;;;;;;;18.33;13.48;;;25.50;99.90;;;;;;5026176;28;20063;-64
2022/09/12 12:41:16;;;;;;;18.70;13.00;;;25.20;99.90;;;;;;5028298;28;20057;-63
2022/09/12 12:43:46;;;;;;;14.75;11.02;;;25.40;99.90;;;;;;5029569;28;20515;-64
2022/09/12 12:46:14;;;;;;;23.85;12.50;;;25.40;99.90;;;;;;5032508;28;20133;-63
2022/09/12 12:48:51;;;;;;;17.40;11.80;;;25.30;99.90;;;;;;5029768;28;20056;-64
2022/09/12 12:51:32;;;;;;;17.85;12.48;;;25.30;99.90;;;;;;5011545;28;20418;-64
2022/09/12 12:54:00;;;;;;;15.32;11.32;;;25.30;99.90;;;;;;5028595;28;20414;-63
2022/09/12 12:56:33;;;;;;;15.20;12.23;;;25.40;99.90;;;;;;5028938;28;20044;-63
2022/09/12 12:59:03;;;;;;;13.82;10.88;;;25.40;99.90;;;;;;5029363;28;20115;-64
2022/09/12 13:01:29;;;;;;;15.98;12.80;;;25.40;99.90;;;;;;5028910;28;20049;-64